sensor_id;sensor_type;location;lat;lon;timestamp;pressure;altitude;pressure_sealevel;temperature;humidity
16978;BME280;8605;52.548;4.918;2024-01-06T00:02:16;100526.25;;;4.77;96.63
16978;BME280;8605;52.548;4.918;2024-01-06T00:04:43;100530.47;;;4.79;97.07
16978;BME280;8605;52.548;4.918;2024-01-06T00:07:11;100529.16;;;4.74;96.56
16978;BME280;8605;52.548;4.918;2024-01-06T00:09:40;100534.81;;;4.80;96.54
16978;BME280;8605;52.548;4.918;2024-01-06T00:12:10;100536.91;;;4.77;97.44
16978;BME280;8605;52.548;4.918;2024-01-06T00:14:38;100539.97;;;4.72;97.44
16978;BME280;8605;52.548;4.918;2024-01-06T00:17:08;100546.16;;;4.73;96.53
16978;BME280;8605;52.548;4.918;2024-01-06T00:19:36;100542.63;;;4.72;97.25
16978;BME280;8605;52.548;4.918;2024-01-06T00:22:05;100534.31;;;4.66;96.88
16978;BME280;8605;52.548;4.918;2024-01-06T00:24:32;100552.81;;;4.67;96.32
16978;BME280;8605;52.548;4.918;2024-01-06T00:27:00;100556.59;;;4.65;97.18
16978;BME280;8605;52.548;4.918;2024-01-06T00:29:30;100560.69;;;4.69;96.48
16978;BME280;8605;52.548;4.918;2024-01-06T00:31:57;100563.94;;;4.72;96.50
16978;BME280;8605;52.548;4.918;2024-01-06T00:34:25;100568.56;;;4.70;96.38
16978;BME280;8605;52.548;4.918;2024-01-06T00:36:54;100573.88;;;4.70;96.82
16978;BME280;8605;52.548;4.918;2024-01-06T00:39:21;100570.88;;;4.64;96.59
16978;BME280;8605;52.548;4.918;2024-01-06T00:41:50;100575.13;;;4.66;96.71
16978;BME280;8605;52.548;4.918;2024-01-06T00:44:18;100581.53;;;4.64;96.82
16978;BME280;8605;52.548;4.918;2024-01-06T00:46:47;100570.75;;;4.65;96.43
16978;BME280;8605;52.548;4.918;2024-01-06T00:49:15;100570.88;;;4.64;97.01
16978;BME280;8605;52.548;4.918;2024-01-06T00:51:43;100569.28;;;4.61;96.83
16978;BME280;8605;52.548;4.918;2024-01-06T00:54:11;100568.72;;;4.58;96.62
16978;BME280;8605;52.548;4.918;2024-01-06T00:56:39;100576.31;;;4.62;95.85
16978;BME280;8605;52.548;4.918;2024-01-06T00:59:08;100573.94;;;4.59;96.15
16978;BME280;8605;52.548;4.918;2024-01-06T01:01:36;100572.34;;;4.57;96.19
16978;BME280;8605;52.548;4.918;2024-01-06T01:04:06;100569.81;;;4.55;95.70
16978;BME280;8605;52.548;4.918;2024-01-06T01:06:36;100590.88;;;4.58;96.24
16978;BME280;8605;52.548;4.918;2024-01-06T01:09:04;100588.34;;;4.57;95.85
16978;BME280;8605;52.548;4.918;2024-01-06T01:11:32;100593.78;;;4.55;95.48
16978;BME280;8605;52.548;4.918;2024-01-06T01:14:00;100599.97;;;4.56;95.95
16978;BME280;8605;52.548;4.918;2024-01-06T01:16:28;100591.75;;;4.48;95.09
16978;BME280;8605;52.548;4.918;2024-01-06T01:18:56;100607.88;;;4.46;94.93
16978;BME280;8605;52.548;4.918;2024-01-06T01:21:25;100597.34;;;4.45;95.68
16978;BME280;8605;52.548;4.918;2024-01-06T01:23:53;100618.88;;;4.41;95.12
16978;BME280;8605;52.548;4.918;2024-01-06T01:26:21;100616.47;;;4.38;95.24
16978;BME280;8605;52.548;4.918;2024-01-06T01:28:49;100625.78;;;4.44;95.31
16978;BME280;8605;52.548;4.918;2024-01-06T01:31:17;100636.31;;;4.46;95.17
16978;BME280;8605;52.548;4.918;2024-01-06T01:33:45;100629.88;;;4.48;95.23
16978;BME280;8605;52.548;4.918;2024-01-06T01:36:13;100633.78;;;4.44;95.17
16978;BME280;8605;52.548;4.918;2024-01-06T01:38:42;100639.94;;;4.45;95.60
16978;BME280;8605;52.548;4.918;2024-01-06T01:41:10;100634.63;;;4.45;96.10
16978;BME280;8605;52.548;4.918;2024-01-06T01:43:37;100633.78;;;4.44;95.89
16978;BME280;8605;52.548;4.918;2024-01-06T01:46:05;100646.25;;;4.43;95.54
16978;BME280;8605;52.548;4.918;2024-01-06T01:48:33;100658.50;;;4.46;95.94
16978;BME280;8605;52.548;4.918;2024-01-06T01:51:02;100655.09;;;4.44;95.67
16978;BME280;8605;52.548;4.918;2024-01-06T01:53:31;100652.81;;;4.39;96.09
16978;BME280;8605;52.548;4.918;2024-01-06T01:56:00;100652.44;;;4.44;95.07
16978;BME280;8605;52.548;4.918;2024-01-06T01:58:30;100675.56;;;4.43;95.70
16978;BME280;8605;52.548;4.918;2024-01-06T02:00:59;100666.81;;;4.41;95.66
16978;BME280;8605;52.548;4.918;2024-01-06T02:03:29;100673.84;;;4.42;95.91
16978;BME280;8605;52.548;4.918;2024-01-06T02:05:57;100671.81;;;4.46;95.52
16978;BME280;8605;52.548;4.918;2024-01-06T02:08:25;100680.03;;;4.43;95.64
16978;BME280;8605;52.548;4.918;2024-01-06T02:10:54;100665.38;;;4.37;95.51
16978;BME280;8605;52.548;4.918;2024-01-06T02:13:24;100671.19;;;4.42;96.00
16978;BME280;8605;52.548;4.918;2024-01-06T02:15:52;100671.56;;;4.38;95.07
16978;BME280;8605;52.548;4.918;2024-01-06T02:18:20;100676.78;;;4.39;95.57
16978;BME280;8605;52.548;4.918;2024-01-06T02:20:48;100674.34;;;4.36;95.45
16978;BME280;8605;52.548;4.918;2024-01-06T02:23:18;100683.66;;;4.42;95.16
16978;BME280;8605;52.548;4.918;2024-01-06T02:25:46;100688.13;;;4.41;95.51
16978;BME280;8605;52.548;4.918;2024-01-06T02:28:13;100678.81;;;4.36;95.71
16978;BME280;8605;52.548;4.918;2024-01-06T02:30:42;100693.47;;;4.41;95.25
16978;BME280;8605;52.548;4.918;2024-01-06T02:33:10;100691.78;;;4.40;95.25
16978;BME280;8605;52.548;4.918;2024-01-06T02:35:38;100700.50;;;4.42;95.80
16978;BME280;8605;52.548;4.918;2024-01-06T02:38:06;100703.41;;;4.39;96.25
16978;BME280;8605;52.548;4.918;2024-01-06T02:40:37;100708.00;;;4.37;95.80
16978;BME280;8605;52.548;4.918;2024-01-06T02:43:04;100717.44;;;4.41;95.72
16978;BME280;8605;52.548;4.918;2024-01-06T02:45:32;100713.91;;;4.41;95.59
16978;BME280;8605;52.548;4.918;2024-01-06T02:48:00;100725.44;;;4.41;96.42
16978;BME280;8605;52.548;4.918;2024-01-06T02:50:28;100728.34;;;4.38;96.09
16978;BME280;8605;52.548;4.918;2024-01-06T02:52:56;100721.81;;;4.31;96.25
16978;BME280;8605;52.548;4.918;2024-01-06T02:55:24;100731.25;;;4.35;96.37
16978;BME280;8605;52.548;4.918;2024-01-06T02:57:53;100738.63;;;4.32;95.52
16978;BME280;8605;52.548;4.918;2024-01-06T03:00:21;100736.81;;;4.32;95.57
16978;BME280;8605;52.548;4.918;2024-01-06T03:02:48;100742.63;;;4.37;95.62
16978;BME280;8605;52.548;4.918;2024-01-06T03:05:16;100747.38;;;4.34;95.92
16978;BME280;8605;52.548;4.918;2024-01-06T03:07:44;100749.19;;;4.33;96.38
16978;BME280;8605;52.548;4.918;2024-01-06T03:10:12;100753.50;;;4.34;96.41
16978;BME280;8605;52.548;4.918;2024-01-06T03:12:40;100749.88;;;4.35;95.79
16978;BME280;8605;52.548;4.918;2024-01-06T03:15:09;100752.56;;;4.24;95.96
16978;BME280;8605;52.548;4.918;2024-01-06T03:17:38;100752.56;;;4.24;96.22
16978;BME280;8605;52.548;4.918;2024-01-06T03:20:07;100758.25;;;4.20;95.99
16978;BME280;8605;52.548;4.918;2024-01-06T03:22:35;100759.69;;;4.24;95.72
16978;BME280;8605;52.548;4.918;2024-01-06T03:25:04;100762.25;;;4.25;95.57
16978;BME280;8605;52.548;4.918;2024-01-06T03:27:32;100764.16;;;4.23;95.52
16978;BME280;8605;52.548;4.918;2024-01-06T03:30:00;100756.75;;;4.16;94.50
16978;BME280;8605;52.548;4.918;2024-01-06T03:32:29;100784.88;;;4.20;95.09
16978;BME280;8605;52.548;4.918;2024-01-06T03:34:57;100777.00;;;4.18;95.74
16978;BME280;8605;52.548;4.918;2024-01-06T03:37:25;100778.06;;;4.16;95.59
16978;BME280;8605;52.548;4.918;2024-01-06T03:39:53;100794.41;;;4.22;95.24
16978;BME280;8605;52.548;4.918;2024-01-06T03:42:21;100793.72;;;4.20;95.37
16978;BME280;8605;52.548;4.918;2024-01-06T03:44:49;100791.75;;;4.22;94.90
16978;BME280;8605;52.548;4.918;2024-01-06T03:47:17;100796.38;;;4.20;95.76
16978;BME280;8605;52.548;4.918;2024-01-06T03:49:46;100797.22;;;4.21;95.20
16978;BME280;8605;52.548;4.918;2024-01-06T03:52:14;100795.28;;;4.23;95.68
16978;BME280;8605;52.548;4.918;2024-01-06T03:54:42;100795.28;;;4.23;95.95
16978;BME280;8605;52.548;4.918;2024-01-06T03:57:10;100796.38;;;4.20;95.52
16978;BME280;8605;52.548;4.918;2024-01-06T03:59:38;100798.41;;;4.17;95.32
16978;BME280;8605;52.548;4.918;2024-01-06T04:02:06;100803.84;;;4.15;95.18
16978;BME280;8605;52.548;4.918;2024-01-06T04:04:34;100804.84;;;4.14;96.11
16978;BME280;8605;52.548;4.918;2024-01-06T04:07:03;100803.84;;;4.15;95.43
16978;BME280;8605;52.548;4.918;2024-01-06T04:09:34;100817.03;;;4.17;96.13
16978;BME280;8605;52.548;4.918;2024-01-06T04:12:02;100821.53;;;4.16;95.09
16978;BME280;8605;52.548;4.918;2024-01-06T04:14:29;100827.09;;;4.13;95.44
16978;BME280;8605;52.548;4.918;2024-01-06T04:16:57;100827.09;;;4.13;95.62
16978;BME280;8605;52.548;4.918;2024-01-06T04:19:25;100830.25;;;4.18;95.58
16978;BME280;8605;52.548;4.918;2024-01-06T04:21:53;100825.41;;;4.12;95.89
16978;BME280;8605;52.548;4.918;2024-01-06T04:24:22;100831.56;;;4.13;95.54
16978;BME280;8605;52.548;4.918;2024-01-06T04:26:50;100836.91;;;4.13;95.21
16978;BME280;8605;52.548;4.918;2024-01-06T04:29:18;100844.16;;;4.11;94.93
16978;BME280;8605;52.548;4.918;2024-01-06T04:31:46;100852.88;;;4.13;96.15
16978;BME280;8605;52.548;4.918;2024-01-06T04:34:14;100848.41;;;4.13;95.63
16978;BME280;8605;52.548;4.918;2024-01-06T04:36:42;100857.94;;;4.16;95.57
16978;BME280;8605;52.548;4.918;2024-01-06T04:39:10;100847.53;;;4.13;96.60
16978;BME280;8605;52.548;4.918;2024-01-06T04:41:41;100868.75;;;4.14;96.27
16978;BME280;8605;52.548;4.918;2024-01-06T04:44:09;100870.31;;;4.17;95.91
16978;BME280;8605;52.548;4.918;2024-01-06T04:46:37;100867.03;;;4.13;96.42
16978;BME280;8605;52.548;4.918;2024-01-06T04:49:05;100863.88;;;4.08;97.04
16978;BME280;8605;52.548;4.918;2024-01-06T04:51:33;100875.03;;;4.13;97.08
16978;BME280;8605;52.548;4.918;2024-01-06T04:54:01;100880.09;;;4.16;97.13
16978;BME280;8605;52.548;4.918;2024-01-06T04:56:29;100882.75;;;4.16;96.48
16978;BME280;8605;52.548;4.918;2024-01-06T04:59:03;100885.56;;;4.15;97.23
16978;BME280;8605;52.548;4.918;2024-01-06T05:01:31;100879.72;;;4.10;96.61
16978;BME280;8605;52.548;4.918;2024-01-06T05:03:59;100889.06;;;4.15;97.39
16978;BME280;8605;52.548;4.918;2024-01-06T05:06:27;100885.69;;;4.13;97.54
16978;BME280;8605;52.548;4.918;2024-01-06T05:08:55;100888.22;;;4.15;96.48
16978;BME280;8605;52.548;4.918;2024-01-06T05:11:23;100890.03;;;4.14;97.12
16978;BME280;8605;52.548;4.918;2024-01-06T05:13:51;100886.38;;;4.15;96.83
16978;BME280;8605;52.548;4.918;2024-01-06T05:16:21;100890.75;;;4.16;97.54
16978;BME280;8605;52.548;4.918;2024-01-06T05:18:49;100894.72;;;4.11;96.75
16978;BME280;8605;52.548;4.918;2024-01-06T05:21:17;100898.03;;;4.14;97.81
16978;BME280;8605;52.548;4.918;2024-01-06T05:23:45;100904.91;;;4.17;97.13
16978;BME280;8605;52.548;4.918;2024-01-06T05:26:13;100893.03;;;4.10;97.84
16978;BME280;8605;52.548;4.918;2024-01-06T05:28:42;100897.63;;;4.08;97.57
16978;BME280;8605;52.548;4.918;2024-01-06T05:31:10;100904.03;;;4.05;97.36
16978;BME280;8605;52.548;4.918;2024-01-06T05:33:39;100920.75;;;4.07;97.89
16978;BME280;8605;52.548;4.918;2024-01-06T05:36:07;100924.66;;;4.14;97.27
16978;BME280;8605;52.548;4.918;2024-01-06T05:38:36;100926.78;;;4.09;96.98
16978;BME280;8605;52.548;4.918;2024-01-06T05:41:03;100924.88;;;4.11;97.45
16978;BME280;8605;52.548;4.918;2024-01-06T05:43:31;100930.19;;;4.11;96.98
16978;BME280;8605;52.548;4.918;2024-01-06T05:45:59;100933.81;;;4.10;97.21
16978;BME280;8605;52.548;4.918;2024-01-06T05:48:27;100939.84;;;4.01;97.80
16978;BME280;8605;52.548;4.918;2024-01-06T05:50:56;100932.25;;;4.08;97.39
16978;BME280;8605;52.548;4.918;2024-01-06T05:53:24;100939.00;;;4.00;97.59
16978;BME280;8605;52.548;4.918;2024-01-06T05:55:53;100945.88;;;4.03;97.25
16978;BME280;8605;52.548;4.918;2024-01-06T05:58:21;100949.19;;;4.07;96.43
16978;BME280;8605;52.548;4.918;2024-01-06T06:00:49;100959.84;;;4.07;96.82
16978;BME280;8605;52.548;4.918;2024-01-06T06:03:17;100964.31;;;4.06;96.71
16978;BME280;8605;52.548;4.918;2024-01-06T06:05:45;100961.84;;;4.03;97.36
16978;BME280;8605;52.548;4.918;2024-01-06T06:08:15;100970.81;;;4.02;97.39
16978;BME280;8605;52.548;4.918;2024-01-06T06:10:42;100970.09;;;4.00;96.80
16978;BME280;8605;52.548;4.918;2024-01-06T06:13:26;100984.09;;;4.02;97.00
16978;BME280;8605;52.548;4.918;2024-01-06T06:15:54;100981.44;;;4.02;96.17
16978;BME280;8605;52.548;4.918;2024-01-06T06:18:22;100991.03;;;4.05;96.29
16978;BME280;8605;52.548;4.918;2024-01-06T06:20:51;100995.75;;;4.01;97.08
16978;BME280;8605;52.548;4.918;2024-01-06T06:23:20;101000.22;;;4.00;97.02
16978;BME280;8605;52.548;4.918;2024-01-06T06:25:47;101007.88;;;4.05;97.21
16978;BME280;8605;52.548;4.918;2024-01-06T06:28:15;101008.06;;;4.02;97.09
16978;BME280;8605;52.548;4.918;2024-01-06T06:30:43;101010.72;;;4.02;96.56
16978;BME280;8605;52.548;4.918;2024-01-06T06:33:11;101017.75;;;4.03;96.73
16978;BME280;8605;52.548;4.918;2024-01-06T06:35:39;101018.00;;;4.00;96.66
16978;BME280;8605;52.548;4.918;2024-01-06T06:38:07;101017.16;;;3.99;96.55
16978;BME280;8605;52.548;4.918;2024-01-06T06:40:36;101022.56;;;3.98;96.98
16978;BME280;8605;52.548;4.918;2024-01-06T06:43:04;101023.31;;;4.00;96.12
16978;BME280;8605;52.548;4.918;2024-01-06T06:45:32;101029.81;;;3.96;95.98
16978;BME280;8605;52.548;4.918;2024-01-06T06:48:00;101030.56;;;3.98;96.56
16978;BME280;8605;52.548;4.918;2024-01-06T06:50:28;101032.47;;;3.96;96.12
16978;BME280;8605;52.548;4.918;2024-01-06T06:52:56;101038.78;;;3.95;95.86
16978;BME280;8605;52.548;4.918;2024-01-06T06:55:24;101043.47;;;3.91;96.89
16978;BME280;8605;52.548;4.918;2024-01-06T06:57:53;101050.69;;;3.89;96.80
16978;BME280;8605;52.548;4.918;2024-01-06T07:00:21;101056.78;;;3.91;96.05
16978;BME280;8605;52.548;4.918;2024-01-06T07:02:49;101060.63;;;3.87;96.17
16978;BME280;8605;52.548;4.918;2024-01-06T07:05:17;101061.25;;;3.91;96.82
16978;BME280;8605;52.548;4.918;2024-01-06T07:07:45;101060.63;;;3.87;96.28
16978;BME280;8605;52.548;4.918;2024-01-06T07:10:13;101061.16;;;3.92;95.80
16978;BME280;8605;52.548;4.918;2024-01-06T07:12:41;101066.56;;;3.91;96.90
16978;BME280;8605;52.548;4.918;2024-01-06T07:15:10;101073.69;;;3.90;96.72
16978;BME280;8605;52.548;4.918;2024-01-06T07:17:38;101080.72;;;3.91;96.29
16978;BME280;8605;52.548;4.918;2024-01-06T07:20:07;101082.78;;;3.88;96.81
16978;BME280;8605;52.548;4.918;2024-01-06T07:22:36;101087.00;;;3.90;96.32
16978;BME280;8605;52.548;4.918;2024-01-06T07:25:05;101092.34;;;3.90;97.01
16978;BME280;8605;52.548;4.918;2024-01-06T07:27:34;101096.59;;;3.93;96.52
16978;BME280;8605;52.548;4.918;2024-01-06T07:30:02;101098.50;;;3.91;96.24
16978;BME280;8605;52.548;4.918;2024-01-06T07:32:31;101095.13;;;3.89;96.71
16978;BME280;8605;52.548;4.918;2024-01-06T07:34:59;101097.56;;;3.92;97.39
16978;BME280;8605;52.548;4.918;2024-01-06T07:37:33;101115.22;;;3.93;96.46
16978;BME280;8605;52.548;4.918;2024-01-06T07:40:01;101105.66;;;3.90;96.80
16978;BME280;8605;52.548;4.918;2024-01-06T07:42:29;101114.59;;;3.89;96.80
16978;BME280;8605;52.548;4.918;2024-01-06T07:45:00;101113.63;;;3.90;97.49
16978;BME280;8605;52.548;4.918;2024-01-06T07:47:28;101121.50;;;3.92;96.87
16978;BME280;8605;52.548;4.918;2024-01-06T07:49:58;101114.81;;;3.86;96.52
16978;BME280;8605;52.548;4.918;2024-01-06T07:52:26;101124.41;;;3.89;96.65
16978;BME280;8605;52.548;4.918;2024-01-06T07:54:54;101124.63;;;3.86;96.96
16978;BME280;8605;52.548;4.918;2024-01-06T07:57:22;101124.41;;;3.89;97.60
16978;BME280;8605;52.548;4.918;2024-01-06T07:59:51;101126.53;;;3.84;97.16
16978;BME280;8605;52.548;4.918;2024-01-06T08:02:19;101143.75;;;3.91;97.18
16978;BME280;8605;52.548;4.918;2024-01-06T08:04:47;101150.91;;;3.90;96.87
16978;BME280;8605;52.548;4.918;2024-01-06T08:07:16;101149.09;;;3.78;97.65
16978;BME280;8605;52.548;4.918;2024-01-06T08:09:44;101149.63;;;3.83;97.08
16978;BME280;8605;52.548;4.918;2024-01-06T08:12:12;101153.56;;;3.78;97.64
16978;BME280;8605;52.548;4.918;2024-01-06T08:14:40;101166.88;;;3.78;97.22
16978;BME280;8605;52.548;4.918;2024-01-06T08:17:08;101171.03;;;3.82;97.66
16978;BME280;8605;52.548;4.918;2024-01-06T08:19:35;101171.56;;;3.87;97.72
16978;BME280;8605;52.548;4.918;2024-01-06T08:22:03;101178.03;;;3.83;97.15
16978;BME280;8605;52.548;4.918;2024-01-06T08:24:33;101175.59;;;3.80;97.66
16978;BME280;8605;52.548;4.918;2024-01-06T08:27:01;101178.28;;;3.80;97.18
16978;BME280;8605;52.548;4.918;2024-01-06T08:29:28;101175.59;;;3.80;97.66
16978;BME280;8605;52.548;4.918;2024-01-06T08:31:56;101184.34;;;3.82;96.78
16978;BME280;8605;52.548;4.918;2024-01-06T08:34:25;101179.88;;;3.82;96.52
16978;BME280;8605;52.548;4.918;2024-01-06T08:36:58;101191.56;;;3.80;96.82
16978;BME280;8605;52.548;4.918;2024-01-06T08:39:26;101187.09;;;3.80;96.86
16978;BME280;8605;52.548;4.918;2024-01-06T08:41:56;101183.50;;;3.81;97.33
16978;BME280;8605;52.548;4.918;2024-01-06T08:44:27;101192.09;;;3.85;97.23
16978;BME280;8605;52.548;4.918;2024-01-06T08:46:55;101202.75;;;3.85;96.52
16978;BME280;8605;52.548;4.918;2024-01-06T08:49:23;101208.94;;;3.85;96.98
16978;BME280;8605;52.548;4.918;2024-01-06T08:51:51;101214.91;;;3.89;96.61
16978;BME280;8605;52.548;4.918;2024-01-06T08:54:19;101214.34;;;3.84;96.32
16978;BME280;8605;52.548;4.918;2024-01-06T08:56:46;101218.63;;;3.86;97.15
16978;BME280;8605;52.548;4.918;2024-01-06T08:59:16;101224.81;;;3.87;96.94
16978;BME280;8605;52.548;4.918;2024-01-06T09:01:46;101229.16;;;3.88;96.98
16978;BME280;8605;52.548;4.918;2024-01-06T09:04:16;101240.44;;;3.91;97.07
16978;BME280;8605;52.548;4.918;2024-01-06T09:06:44;101236.94;;;3.91;97.29
16978;BME280;8605;52.548;4.918;2024-01-06T09:09:13;101238.44;;;3.95;97.09
16978;BME280;8605;52.548;4.918;2024-01-06T09:11:41;101243.88;;;3.93;97.18
16978;BME280;8605;52.548;4.918;2024-01-06T09:14:10;101248.00;;;3.97;96.55
16978;BME280;8605;52.548;4.918;2024-01-06T09:16:39;101234.78;;;3.96;96.79
16978;BME280;8605;52.548;4.918;2024-01-06T09:19:07;101246.31;;;3.96;97.16
16978;BME280;8605;52.548;4.918;2024-01-06T09:21:35;101245.44;;;3.96;96.44
16978;BME280;8605;52.548;4.918;2024-01-06T09:24:04;101243.44;;;3.99;96.55
16978;BME280;8605;52.548;4.918;2024-01-06T09:26:33;101249.38;;;4.03;96.47
16978;BME280;8605;52.548;4.918;2024-01-06T09:29:03;101260.28;;;4.00;96.42
16978;BME280;8605;52.548;4.918;2024-01-06T09:31:32;101263.47;;;4.05;96.41
16978;BME280;8605;52.548;4.918;2024-01-06T09:34:02;101271.25;;;4.08;95.65
16978;BME280;8605;52.548;4.918;2024-01-06T09:36:30;101277.31;;;4.10;96.87
16978;BME280;8605;52.548;4.918;2024-01-06T09:38:59;101270.25;;;4.09;96.12
16978;BME280;8605;52.548;4.918;2024-01-06T09:41:26;101285.19;;;4.12;96.46
16978;BME280;8605;52.548;4.918;2024-01-06T09:43:54;101282.44;;;4.13;95.64
16978;BME280;8605;52.548;4.918;2024-01-06T09:46:24;101279.97;;;4.10;95.64
16978;BME280;8605;52.548;4.918;2024-01-06T09:48:54;101287.66;;;4.15;96.29
16978;BME280;8605;52.548;4.918;2024-01-06T09:51:23;101287.53;;;4.16;95.82
16978;BME280;8605;52.548;4.918;2024-01-06T09:53:56;101289.34;;;4.16;95.73
16978;BME280;8605;52.548;4.918;2024-01-06T09:56:28;101298.94;;;4.18;96.58
16978;BME280;8605;52.548;4.918;2024-01-06T09:58:57;101300.84;;;4.16;96.38
16978;BME280;8605;52.548;4.918;2024-01-06T10:01:27;101299.03;;;4.17;96.24
16978;BME280;8605;52.548;4.918;2024-01-06T10:03:55;101303.31;;;4.19;95.93
16978;BME280;8605;52.548;4.918;2024-01-06T10:06:24;101308.41;;;4.22;95.96
16978;BME280;8605;52.548;4.918;2024-01-06T10:08:52;101313.09;;;4.19;96.00
16978;BME280;8605;52.548;4.918;2024-01-06T10:11:22;101315.53;;;4.22;96.27
16978;BME280;8605;52.548;4.918;2024-01-06T10:13:52;101313.97;;;4.19;96.11
16978;BME280;8605;52.548;4.918;2024-01-06T10:16:21;101321.53;;;4.25;97.11
16978;BME280;8605;52.548;4.918;2024-01-06T10:18:49;101323.13;;;4.28;96.43
16978;BME280;8605;52.548;4.918;2024-01-06T10:21:20;101333.56;;;4.31;96.17
16978;BME280;8605;52.548;4.918;2024-01-06T10:23:50;101322.72;;;4.34;95.65
16978;BME280;8605;52.548;4.918;2024-01-06T10:26:18;101323.78;;;4.31;96.02
16978;BME280;8605;52.548;4.918;2024-01-06T10:28:48;101331.44;;;4.36;95.99
16978;BME280;8605;52.548;4.918;2024-01-06T10:31:15;101330.56;;;4.35;96.72
16978;BME280;8605;52.548;4.918;2024-01-06T10:33:44;101326.75;;;4.39;96.24
16978;BME280;8605;52.548;4.918;2024-01-06T10:36:13;101329.84;;;4.33;95.63
16978;BME280;8605;52.548;4.918;2024-01-06T10:38:44;101327.91;;;4.35;96.29
16978;BME280;8605;52.548;4.918;2024-01-06T10:41:15;101331.44;;;4.36;95.87
16978;BME280;8605;52.548;4.918;2024-01-06T10:43:44;101343.59;;;4.40;95.25
16978;BME280;8605;52.548;4.918;2024-01-06T10:46:14;101335.19;;;4.33;94.92
16978;BME280;8605;52.548;4.918;2024-01-06T10:48:43;101335.69;;;4.26;95.19
16978;BME280;8605;52.548;4.918;2024-01-06T10:51:13;101345.19;;;4.30;95.76
16978;BME280;8605;52.548;4.918;2024-01-06T10:53:42;101346.03;;;4.30;95.45
16978;BME280;8605;52.548;4.918;2024-01-06T10:56:10;101349.34;;;4.34;96.05
16978;BME280;8605;52.548;4.918;2024-01-06T10:58:45;101343.91;;;4.35;96.04
16978;BME280;8605;52.548;4.918;2024-01-06T11:01:15;101351.16;;;4.33;94.95
16978;BME280;8605;52.548;4.918;2024-01-06T11:03:50;101350.19;;;4.34;95.90
16978;BME280;8605;52.548;4.918;2024-01-06T11:06:21;101355.22;;;4.39;96.46
16978;BME280;8605;52.548;4.918;2024-01-06T11:08:53;101362.03;;;4.43;96.39
16978;BME280;8605;52.548;4.918;2024-01-06T11:11:24;101357.97;;;4.37;96.22
16978;BME280;8605;52.548;4.918;2024-01-06T11:14:17;101360.75;;;4.36;96.23
16978;BME280;8605;52.548;4.918;2024-01-06T11:16:45;101373.97;;;4.37;95.48
16978;BME280;8605;52.548;4.918;2024-01-06T11:22:18;101370.88;;;4.43;95.39
16978;BME280;8605;52.548;4.918;2024-01-06T11:24:47;101374.41;;;4.44;95.04
16978;BME280;8605;52.548;4.918;2024-01-06T11:27:22;101376.84;;;4.47;94.72
16978;BME280;8605;52.548;4.918;2024-01-06T11:29:57;101369.41;;;4.52;95.29
16978;BME280;8605;52.548;4.918;2024-01-06T11:32:29;101371.63;;;4.46;94.35
16978;BME280;8605;52.548;4.918;2024-01-06T11:35:05;101369.38;;;4.39;94.55
16978;BME280;8605;52.548;4.918;2024-01-06T11:37:36;101371.63;;;4.46;95.20
16978;BME280;8605;52.548;4.918;2024-01-06T11:40:09;101375.25;;;4.45;93.69
16978;BME280;8605;52.548;4.918;2024-01-06T11:42:41;101377.16;;;4.42;94.92
16978;BME280;8605;52.548;4.918;2024-01-06T11:45:10;101374.81;;;4.38;94.51
16978;BME280;8605;52.548;4.918;2024-01-06T11:47:39;101379.38;;;4.36;93.79
16978;BME280;8605;52.548;4.918;2024-01-06T11:50:08;101376.19;;;4.31;93.63
16978;BME280;8605;52.548;4.918;2024-01-06T11:52:37;101376.28;;;4.29;94.59
16978;BME280;8605;52.548;4.918;2024-01-06T11:55:05;101376.94;;;4.33;94.91
16978;BME280;8605;52.548;4.918;2024-01-06T11:57:34;101372.03;;;4.27;94.08
16978;BME280;8605;52.548;4.918;2024-01-06T12:00:03;101385.34;;;4.27;94.38
16978;BME280;8605;52.548;4.918;2024-01-06T12:02:32;101373.50;;;4.18;94.44
16978;BME280;8605;52.548;4.918;2024-01-06T12:05:00;101377.66;;;4.22;95.54
16978;BME280;8605;52.548;4.918;2024-01-06T12:07:28;101386.06;;;4.16;95.39
16978;BME280;8605;52.548;4.918;2024-01-06T12:10:02;101388.63;;;4.18;95.31
16978;BME280;8605;52.548;4.918;2024-01-06T12:12:30;101390.25;;;4.20;94.86
16978;BME280;8605;52.548;4.918;2024-01-06T12:14:58;101389.28;;;4.21;95.48
16978;BME280;8605;52.548;4.918;2024-01-06T12:17:28;101393.09;;;4.17;95.08
16978;BME280;8605;52.548;4.918;2024-01-06T12:19:58;101388.53;;;4.19;94.54
16978;BME280;8605;52.548;4.918;2024-01-06T12:22:27;101393.41;;;4.13;94.59
16978;BME280;8605;52.548;4.918;2024-01-06T12:24:54;101404.06;;;4.13;95.14
16978;BME280;8605;52.548;4.918;2024-01-06T12:27:24;101397.66;;;4.15;95.75
16978;BME280;8605;52.548;4.918;2024-01-06T12:29:52;101399.28;;;4.18;94.93
16978;BME280;8605;52.548;4.918;2024-01-06T12:32:20;101405.88;;;4.12;94.11
16978;BME280;8605;52.548;4.918;2024-01-06T12:34:48;101405.69;;;4.28;95.50
16978;BME280;8605;52.548;4.918;2024-01-06T12:37:18;101398.00;;;4.23;95.31
16978;BME280;8605;52.548;4.918;2024-01-06T12:39:47;101391.28;;;4.18;94.97
16978;BME280;8605;52.548;4.918;2024-01-06T12:42:15;101405.16;;;4.23;95.66
16978;BME280;8605;52.548;4.918;2024-01-06T12:44:43;101405.28;;;4.21;95.53
16978;BME280;8605;52.548;4.918;2024-01-06T12:47:10;101398.09;;;4.22;95.57
16978;BME280;8605;52.548;4.918;2024-01-06T12:49:40;101405.69;;;4.28;95.71
16978;BME280;8605;52.548;4.918;2024-01-06T12:52:08;101403.88;;;4.28;94.49
16978;BME280;8605;52.548;4.918;2024-01-06T12:54:38;101400.69;;;4.36;94.61
16978;BME280;8605;52.548;4.918;2024-01-06T12:57:09;101407.09;;;4.33;95.27
16978;BME280;8605;52.548;4.918;2024-01-06T12:59:38;101405.41;;;4.32;94.90
16978;BME280;8605;52.548;4.918;2024-01-06T13:02:06;101407.97;;;4.34;94.94
16978;BME280;8605;52.548;4.918;2024-01-06T13:04:35;101413.28;;;4.34;95.08
16978;BME280;8605;52.548;4.918;2024-01-06T13:07:03;101420.63;;;4.30;94.43
16978;BME280;8605;52.548;4.918;2024-01-06T13:09:31;101422.97;;;4.35;95.14
16978;BME280;8605;52.548;4.918;2024-01-06T13:12:01;101414.53;;;4.28;93.73
16978;BME280;8605;52.548;4.918;2024-01-06T13:14:29;101420.19;;;4.36;93.93
16978;BME280;8605;52.548;4.918;2024-01-06T13:17:01;101424.47;;;4.39;94.02
16978;BME280;8605;52.548;4.918;2024-01-06T13:19:29;101431.06;;;4.33;94.14
16978;BME280;8605;52.548;4.918;2024-01-06T13:21:57;101428.28;;;4.35;93.78